sensor_id;sensor_type;location;lat;lon;timestamp;pressure;altitude;pressure_sealevel;temperature;humidity
24306;BME280;12423;48.768;8.850;2022-07-09T00:01:56;98114.50;;;13.32;100.00
24306;BME280;12423;48.768;8.850;2022-07-09T00:03:57;98120.47;;;13.35;100.00
24306;BME280;12423;48.768;8.850;2022-07-09T00:05:58;98113.63;;;13.42;100.00
24306;BME280;12423;48.768;8.850;2022-07-09T00:07:59;98118.03;;;13.43;100.00
24306;BME280;12423;48.768;8.850;2022-07-09T00:09:59;98112.66;;;13.43;100.00
24306;BME280;12423;48.768;8.850;2022-07-09T00:12:00;98112.44;;;13.35;100.00
24306;BME280;12423;48.768;8.850;2022-07-09T00:14:01;98111.19;;;13.05;100.00
24306;BME280;12423;48.768;8.850;2022-07-09T00:16:03;98118.75;;;13.12;100.00
24306;BME280;12423;48.768;8.850;2022-07-09T00:18:04;98107.53;;;13.18;100.00
24306;BME280;12423;48.768;8.850;2022-07-09T00:20:05;98105.09;;;13.03;100.00
24306;BME280;12423;48.768;8.850;2022-07-09T00:22:06;98101.56;;;13.03;100.00
24306;BME280;12423;48.768;8.850;2022-07-09T00:24:07;98106.53;;;12.85;100.00
24306;BME280;12423;48.768;8.850;2022-07-09T00:26:08;98104.09;;;12.70;100.00
24306;BME280;12423;48.768;8.850;2022-07-09T00:28:09;98094.69;;;12.65;100.00
24306;BME280;12423;48.768;8.850;2022-07-09T00:30:10;98098.09;;;12.67;100.00
24306;BME280;12423;48.768;8.850;2022-07-09T00:32:11;98099.25;;;12.87;100.00
24306;BME280;12423;48.768;8.850;2022-07-09T00:34:12;98094.38;;;13.03;100.00
24306;BME280;12423;48.768;8.850;2022-07-09T00:36:13;98096.81;;;12.84;100.00
24306;BME280;12423;48.768;8.850;2022-07-09T00:38:14;98087.25;;;12.57;100.00
24306;BME280;12423;48.768;8.850;2022-07-09T00:40:15;98089.72;;;12.71;100.00
24306;BME280;12423;48.768;8.850;2022-07-09T00:42:17;98086.06;;;12.84;100.00
24306;BME280;12423;48.768;8.850;2022-07-09T00:44:18;98086.81;;;12.86;100.00
24306;BME280;12423;48.768;8.850;2022-07-09T00:46:18;98070.84;;;12.84;100.00
24306;BME280;12423;48.768;8.850;2022-07-09T00:48:19;98079.59;;;12.86;100.00
24306;BME280;12423;48.768;8.850;2022-07-09T00:50:21;98086.69;;;12.87;100.00
24306;BME280;12423;48.768;8.850;2022-07-09T00:52:22;98078.41;;;12.90;100.00
24306;BME280;12423;48.768;8.850;2022-07-09T00:54:24;98073.50;;;12.84;100.00
24306;BME280;12423;48.768;8.850;2022-07-09T00:56:27;98071.28;;;12.67;100.00
24306;BME280;12423;48.768;8.850;2022-07-09T00:58:29;98075.09;;;12.76;100.00
24306;BME280;12423;48.768;8.850;2022-07-09T01:00:30;98075.94;;;12.76;100.00
24306;BME280;12423;48.768;8.850;2022-07-09T01:02:31;98067.06;;;12.76;100.00
24306;BME280;12423;48.768;8.850;2022-07-09T01:04:32;98075.22;;;12.74;100.00
24306;BME280;12423;48.768;8.850;2022-07-09T01:06:33;98070.59;;;12.76;100.00
24306;BME280;12423;48.768;8.850;2022-07-09T01:08:37;98074.88;;;12.79;100.00
24306;BME280;12423;48.768;8.850;2022-07-09T01:10:38;98076.31;;;12.71;100.00
24306;BME280;12423;48.768;8.850;2022-07-09T01:12:39;98071.06;;;12.70;100.00
24306;BME280;12423;48.768;8.850;2022-07-09T01:14:40;98072.16;;;12.67;100.00
24306;BME280;12423;48.768;8.850;2022-07-09T01:16:41;98065.44;;;12.62;100.00
24306;BME280;12423;48.768;8.850;2022-07-09T01:18:46;98066.00;;;12.31;100.00
24306;BME280;12423;48.768;8.850;2022-07-09T01:20:47;98058.88;;;12.08;100.00
24306;BME280;12423;48.768;8.850;2022-07-09T01:22:48;98063.28;;;12.20;100.00
24306;BME280;12423;48.768;8.850;2022-07-09T01:24:50;98062.28;;;12.10;100.00
24306;BME280;12423;48.768;8.850;2022-07-09T01:26:53;98058.09;;;11.94;100.00
24306;BME280;12423;48.768;8.850;2022-07-09T01:28:54;98056.16;;;11.96;100.00
24306;BME280;12423;48.768;8.850;2022-07-09T01:30:55;98057.78;;;11.86;100.00
24306;BME280;12423;48.768;8.850;2022-07-09T01:32:56;98053.84;;;11.79;100.00
24306;BME280;12423;48.768;8.850;2022-07-09T01:34:57;98053.63;;;11.82;100.00
24306;BME280;12423;48.768;8.850;2022-07-09T01:36:58;98048.78;;;11.87;100.00
24306;BME280;12423;48.768;8.850;2022-07-09T01:38:59;98040.13;;;12.08;100.00
24306;BME280;12423;48.768;8.850;2022-07-09T01:41:01;98049.25;;;12.05;100.00
24306;BME280;12423;48.768;8.850;2022-07-09T01:43:02;98042.81;;;12.08;100.00
24306;BME280;12423;48.768;8.850;2022-07-09T01:45:03;98040.72;;;12.00;100.00
24306;BME280;12423;48.768;8.850;2022-07-09T01:47:04;98044.13;;;12.02;100.00
24306;BME280;12423;48.768;8.850;2022-07-09T01:49:05;98038.41;;;11.83;100.00
24306;BME280;12423;48.768;8.850;2022-07-09T01:51:06;98039.03;;;11.86;100.00
24306;BME280;12423;48.768;8.850;2022-07-09T01:53:08;98038.31;;;11.84;100.00
24306;BME280;12423;48.768;8.850;2022-07-09T01:55:09;98041.31;;;11.79;100.00
24306;BME280;12423;48.768;8.850;2022-07-09T01:57:10;98035.41;;;11.87;100.00
24306;BME280;12423;48.768;8.850;2022-07-09T01:59:11;98038.59;;;11.92;100.00
24306;BME280;12423;48.768;8.850;2022-07-09T02:01:12;98039.09;;;11.97;100.00
24306;BME280;12423;48.768;8.850;2022-07-09T02:03:13;98033.97;;;11.94;100.00
24306;BME280;12423;48.768;8.850;2022-07-09T02:05:14;98030.00;;;11.76;100.00
24306;BME280;12423;48.768;8.850;2022-07-09T02:07:15;98026.03;;;11.82;100.00
24306;BME280;12423;48.768;8.850;2022-07-09T02:09:16;98033.94;;;11.83;100.00
24306;BME280;12423;48.768;8.850;2022-07-09T02:11:18;98022.44;;;11.70;100.00
24306;BME280;12423;48.768;8.850;2022-07-09T02:13:19;98025.69;;;11.62;100.00
24306;BME280;12423;48.768;8.850;2022-07-09T02:15:21;98020.03;;;11.78;100.00
24306;BME280;12423;48.768;8.850;2022-07-09T02:17:22;98026.09;;;11.69;100.00
24306;BME280;12423;48.768;8.850;2022-07-09T02:19:23;98022.47;;;11.81;100.00
24306;BME280;12423;48.768;8.850;2022-07-09T02:21:25;98014.94;;;11.86;100.00
24306;BME280;12423;48.768;8.850;2022-07-09T02:23:25;98026.63;;;11.85;100.00
24306;BME280;12423;48.768;8.850;2022-07-09T02:25:26;98026.88;;;11.82;100.00
24306;BME280;12423;48.768;8.850;2022-07-09T02:27:28;98026.03;;;11.82;100.00
24306;BME280;12423;48.768;8.850;2022-07-09T02:29:29;98020.50;;;11.72;100.00
24306;BME280;12423;48.768;8.850;2022-07-09T02:31:30;98023.19;;;11.72;100.00
24306;BME280;12423;48.768;8.850;2022-07-09T02:33:31;98023.69;;;11.77;100.00
24306;BME280;12423;48.768;8.850;2022-07-09T02:35:32;98026.94;;;11.69;100.00
24306;BME280;12423;48.768;8.850;2022-07-09T02:37:33;98025.25;;;11.68;100.00
24306;BME280;12423;48.768;8.850;2022-07-09T02:39:34;98030.69;;;11.67;100.00
24306;BME280;12423;48.768;8.850;2022-07-09T02:41:35;98026.47;;;11.51;100.00
24306;BME280;12423;48.768;8.850;2022-07-09T02:43:36;98022.78;;;11.41;100.00
24306;BME280;12423;48.768;8.850;2022-07-09T02:45:38;98024.78;;;11.50;100.00
24306;BME280;12423;48.768;8.850;2022-07-09T02:47:39;98029.09;;;11.64;100.00
24306;BME280;12423;48.768;8.850;2022-07-09T02:49:40;98023.63;;;11.66;100.00
24306;BME280;12423;48.768;8.850;2022-07-09T02:51:41;98029.94;;;11.65;100.00
24306;BME280;12423;48.768;8.850;2022-07-09T02:53:42;98027.31;;;11.76;100.00
24306;BME280;12423;48.768;8.850;2022-07-09T02:55:44;98024.59;;;11.65;100.00
24306;BME280;12423;48.768;8.850;2022-07-09T02:57:45;98024.31;;;11.56;100.00
24306;BME280;12423;48.768;8.850;2022-07-09T02:59:46;98026.66;;;11.61;100.00
24306;BME280;12423;48.768;8.850;2022-07-09T03:01:47;98023.97;;;11.61;100.00
24306;BME280;12423;48.768;8.850;2022-07-09T03:03:48;98023.34;;;11.57;100.00
24306;BME280;12423;48.768;8.850;2022-07-09T03:05:49;98024.78;;;11.50;100.00
24306;BME280;12423;48.768;8.850;2022-07-09T03:07:50;98022.97;;;11.51;100.00
24306;BME280;12423;48.768;8.850;2022-07-09T03:09:51;98024.44;;;11.31;100.00
24306;BME280;12423;48.768;8.850;2022-07-09T03:11:51;98025.81;;;11.23;100.00
24306;BME280;12423;48.768;8.850;2022-07-09T03:13:53;98011.94;;;11.18;100.00
24306;BME280;12423;48.768;8.850;2022-07-09T03:15:54;98024.00;;;11.37;100.00
24306;BME280;12423;48.768;8.850;2022-07-09T03:17:55;98020.84;;;11.43;100.00
24306;BME280;12423;48.768;8.850;2022-07-09T03:19:56;98028.25;;;11.39;100.00
24306;BME280;12423;48.768;8.850;2022-07-09T03:21:57;98025.78;;;11.36;100.00
24306;BME280;12423;48.768;8.850;2022-07-09T03:23:58;98024.50;;;11.42;100.00
24306;BME280;12423;48.768;8.850;2022-07-09T03:25:59;98022.78;;;11.41;100.00
24306;BME280;12423;48.768;8.850;2022-07-09T03:28:00;98029.44;;;11.35;100.00
24306;BME280;12423;48.768;8.850;2022-07-09T03:30:03;98024.94;;;11.36;100.00
24306;BME280;12423;48.768;8.850;2022-07-09T03:32:05;98025.28;;;11.31;100.00
24306;BME280;12423;48.768;8.850;2022-07-09T03:34:06;98026.13;;;11.32;100.00
24306;BME280;12423;48.768;8.850;2022-07-09T03:36:07;98029.91;;;11.29;100.00
24306;BME280;12423;48.768;8.850;2022-07-09T03:38:08;98035.03;;;11.32;100.00
24306;BME280;12423;48.768;8.850;2022-07-09T03:40:09;98030.63;;;11.31;100.00
24306;BME280;12423;48.768;8.850;2022-07-09T03:42:11;98027.09;;;11.31;100.00
24306;BME280;12423;48.768;8.850;2022-07-09T03:44:12;98030.00;;;11.28;100.00
24306;BME280;12423;48.768;8.850;2022-07-09T03:46:13;98022.09;;;11.26;100.00
24306;BME280;12423;48.768;8.850;2022-07-09T03:48:14;98023.97;;;11.13;100.00
24306;BME280;12423;48.768;8.850;2022-07-09T03:50:15;98016.47;;;11.05;100.00
24306;BME280;12423;48.768;8.850;2022-07-09T03:52:16;98028.72;;;10.83;100.00
24306;BME280;12423;48.768;8.850;2022-07-09T03:54:17;98024.09;;;10.98;100.00
24306;BME280;12423;48.768;8.850;2022-07-09T03:56:18;98021.16;;;11.14;100.00
24306;BME280;12423;48.768;8.850;2022-07-09T03:58:20;98029.72;;;11.19;100.00
24306;BME280;12423;48.768;8.850;2022-07-09T04:00:21;98019.41;;;11.26;100.00
24306;BME280;12423;48.768;8.850;2022-07-09T04:02:22;98023.16;;;11.23;100.00
24306;BME280;12423;48.768;8.850;2022-07-09T04:04:23;98026.06;;;11.20;100.00
24306;BME280;12423;48.768;8.850;2022-07-09T04:06:24;98026.31;;;11.17;100.00
24306;BME280;12423;48.768;8.850;2022-07-09T04:08:25;98028.16;;;11.28;100.00
24306;BME280;12423;48.768;8.850;2022-07-09T04:10:26;98035.69;;;11.23;100.00
24306;BME280;12423;48.768;8.850;2022-07-09T04:12:27;98031.06;;;11.25;100.00
24306;BME280;12423;48.768;8.850;2022-07-09T04:14:28;98036.09;;;11.30;100.00
24306;BME280;12423;48.768;8.850;2022-07-09T04:16:29;98034.22;;;11.19;100.00
24306;BME280;12423;48.768;8.850;2022-07-09T04:18:30;98030.84;;;11.28;100.00
24306;BME280;12423;48.768;8.850;2022-07-09T04:20:31;98028.78;;;11.32;100.00
24306;BME280;12423;48.768;8.850;2022-07-09T04:22:32;98037.38;;;11.37;100.00
24306;BME280;12423;48.768;8.850;2022-07-09T04:24:33;98039.63;;;11.30;100.00
24306;BME280;12423;48.768;8.850;2022-07-09T04:26:34;98039.75;;;11.29;100.00
24306;BME280;12423;48.768;8.850;2022-07-09T04:28:36;98045.63;;;11.34;100.00
24306;BME280;12423;48.768;8.850;2022-07-09T04:30:37;98049.53;;;11.41;100.00
24306;BME280;12423;48.768;8.850;2022-07-09T04:32:38;98048.69;;;11.40;100.00
24306;BME280;12423;48.768;8.850;2022-07-09T04:34:40;98046.31;;;11.49;100.00
24306;BME280;12423;48.768;8.850;2022-07-09T04:36:41;98042.63;;;11.50;100.00
24306;BME280;12423;48.768;8.850;2022-07-09T04:38:41;98036.44;;;11.49;100.00
24306;BME280;12423;48.768;8.850;2022-07-09T04:40:43;98046.19;;;11.50;100.00
24306;BME280;12423;48.768;8.850;2022-07-09T04:42:44;98042.03;;;11.46;100.00
24306;BME280;12423;48.768;8.850;2022-07-09T04:44:45;98048.00;;;11.50;100.00
24306;BME280;12423;48.768;8.850;2022-07-09T04:46:46;98042.63;;;11.50;100.00
24306;BME280;12423;48.768;8.850;2022-07-09T04:48:48;98041.44;;;11.30;100.00
24306;BME280;12423;48.768;8.850;2022-07-09T04:50:49;98040.38;;;11.32;100.00
24306;BME280;12423;48.768;8.850;2022-07-09T04:52:50;98045.91;;;11.42;100.00
24306;BME280;12423;48.768;8.850;2022-07-09T04:54:52;98035.50;;;11.50;100.00
24306;BME280;12423;48.768;8.850;2022-07-09T04:56:53;98033.44;;;11.54;100.00
24306;BME280;12423;48.768;8.850;2022-07-09T04:58:54;98042.03;;;11.70;100.00
24306;BME280;12423;48.768;8.850;2022-07-09T05:00:56;98041.63;;;11.64;100.00
24306;BME280;12423;48.768;8.850;2022-07-09T05:02:57;98043.38;;;11.76;100.00
24306;BME280;12423;48.768;8.850;2022-07-09T05:04:58;98041.31;;;11.68;100.00
24306;BME280;12423;48.768;8.850;2022-07-09T05:06:59;98043.66;;;11.84;100.00
24306;BME280;12423;48.768;8.850;2022-07-09T05:09:00;98035.28;;;11.89;100.00
24306;BME280;12423;48.768;8.850;2022-07-09T05:11:01;98033.25;;;11.92;100.00
24306;BME280;12423;48.768;8.850;2022-07-09T05:13:02;98037.22;;;11.87;100.00
24306;BME280;12423;48.768;8.850;2022-07-09T05:15:03;98033.88;;;11.96;100.00
24306;BME280;12423;48.768;8.850;2022-07-09T05:17:05;98029.38;;;11.96;100.00
24306;BME280;12423;48.768;8.850;2022-07-09T05:19:06;98030.78;;;12.13;100.00
24306;BME280;12423;48.768;8.850;2022-07-09T05:21:07;98028.66;;;12.06;100.00
24306;BME280;12423;48.768;8.850;2022-07-09T05:23:08;98031.59;;;12.14;100.00
24306;BME280;12423;48.768;8.850;2022-07-09T05:25:09;98030.19;;;12.21;100.00
24306;BME280;12423;48.768;8.850;2022-07-09T05:27:11;98032.38;;;12.27;100.00
24306;BME280;12423;48.768;8.850;2022-07-09T05:29:12;98028.41;;;12.44;100.00
24306;BME280;12423;48.768;8.850;2022-07-09T05:31:13;98023.66;;;12.48;100.00
24306;BME280;12423;48.768;8.850;2022-07-09T05:33:14;98028.28;;;12.57;100.00
24306;BME280;12423;48.768;8.850;2022-07-09T05:35:15;98029.88;;;12.60;100.00
24306;BME280;12423;48.768;8.850;2022-07-09T05:37:18;98031.47;;;12.62;100.00
24306;BME280;12423;48.768;8.850;2022-07-09T05:39:19;98032.91;;;12.66;100.00
24306;BME280;12423;48.768;8.850;2022-07-09T05:41:20;98033.66;;;12.68;100.00
24306;BME280;12423;48.768;8.850;2022-07-09T05:43:23;98032.69;;;12.69;100.00
24306;BME280;12423;48.768;8.850;2022-07-09T05:45:24;98041.09;;;12.76;100.00
24306;BME280;12423;48.768;8.850;2022-07-09T05:47:25;98044.38;;;12.80;100.00
24306;BME280;12423;48.768;8.850;2022-07-09T05:49:26;98040.63;;;12.94;100.00
24306;BME280;12423;48.768;8.850;2022-07-09T05:51:27;98038.41;;;12.99;100.00
24306;BME280;12423;48.768;8.850;2022-07-09T05:53:28;98039.75;;;13.04;100.00
24306;BME280;12423;48.768;8.850;2022-07-09T05:55:29;98038.88;;;13.15;100.00
24306;BME280;12423;48.768;8.850;2022-07-09T05:57:30;98045.22;;;13.14;100.00
24306;BME280;12423;48.768;8.850;2022-07-09T05:59:31;98044.25;;;13.26;100.00
24306;BME280;12423;48.768;8.850;2022-07-09T06:01:32;98046.19;;;13.36;100.00
24306;BME280;12423;48.768;8.850;2022-07-09T06:03:34;98045.31;;;13.47;100.00
24306;BME280;12423;48.768;8.850;2022-07-09T06:05:35;98033.09;;;13.54;100.00
24306;BME280;12423;48.768;8.850;2022-07-09T06:07:36;98033.44;;;13.60;100.00
24306;BME280;12423;48.768;8.850;2022-07-09T06:09:36;98031.94;;;13.68;100.00
24306;BME280;12423;48.768;8.850;2022-07-09T06:11:38;98028.50;;;13.77;100.00
24306;BME280;12423;48.768;8.850;2022-07-09T06:13:39;98029.09;;;13.80;100.00
24306;BME280;12423;48.768;8.850;2022-07-09T06:15:40;98030.75;;;13.93;100.00
24306;BME280;12423;48.768;8.850;2022-07-09T06:17:40;98027.81;;;13.96;100.00
24306;BME280;12423;48.768;8.850;2022-07-09T06:19:41;98019.97;;;14.04;100.00
24306;BME280;12423;48.768;8.850;2022-07-09T06:21:42;98027.09;;;14.15;100.00
24306;BME280;12423;48.768;8.850;2022-07-09T06:23:43;98024.94;;;14.30;100.00
24306;BME280;12423;48.768;8.850;2022-07-09T06:25:44;98025.25;;;14.36;100.00
24306;BME280;12423;48.768;8.850;2022-07-09T06:27:45;98023.16;;;14.40;100.00
24306;BME280;12423;48.768;8.850;2022-07-09T06:29:46;98021.97;;;14.54;100.00
24306;BME280;12423;48.768;8.850;2022-07-09T06:31:47;98030.31;;;14.72;100.00
24306;BME280;12423;48.768;8.850;2022-07-09T06:33:48;98022.88;;;14.85;100.00
24306;BME280;12423;48.768;8.850;2022-07-09T06:35:49;98015.28;;;15.00;100.00
24306;BME280;12423;48.768;8.850;2022-07-09T06:37:50;98016.00;;;15.12;100.00
24306;BME280;12423;48.768;8.850;2022-07-09T06:39:52;98014.34;;;15.30;100.00
24306;BME280;12423;48.768;8.850;2022-07-09T06:42:06;98016.38;;;15.48;100.00
24306;BME280;12423;48.768;8.850;2022-07-09T06:44:07;98011.59;;;15.61;100.00
24306;BME280;12423;48.768;8.850;2022-07-09T06:46:08;98016.97;;;15.71;100.00
24306;BME280;12423;48.768;8.850;2022-07-09T06:48:09;98020.97;;;15.87;100.00
24306;BME280;12423;48.768;8.850;2022-07-09T06:50:10;98019.72;;;16.00;100.00
24306;BME280;12423;48.768;8.850;2022-07-09T06:52:11;98016.84;;;16.12;100.00
24306;BME280;12423;48.768;8.850;2022-07-09T06:54:12;98013.84;;;16.25;100.00
24306;BME280;12423;48.768;8.850;2022-07-09T06:56:13;98024.34;;;16.37;100.00
24306;BME280;12423;48.768;8.850;2022-07-09T06:58:14;98015.66;;;16.53;100.00
24306;BME280;12423;48.768;8.850;2022-07-09T07:00:15;98008.22;;;16.65;100.00
24306;BME280;12423;48.768;8.850;2022-07-09T07:02:16;98013.44;;;16.86;100.00
24306;BME280;12423;48.768;8.850;2022-07-09T07:04:17;98012.00;;;16.92;100.00
24306;BME280;12423;48.768;8.850;2022-07-09T07:06:18;98008.00;;;16.96;100.00
24306;BME280;12423;48.768;8.850;2022-07-09T07:08:19;98009.41;;;17.00;100.00
24306;BME280;12423;48.768;8.850;2022-07-09T07:10:20;98013.66;;;17.03;100.00
24306;BME280;12423;48.768;8.850;2022-07-09T07:12:21;98004.69;;;17.02;100.00
24306;BME280;12423;48.768;8.850;2022-07-09T07:14:22;98018.91;;;17.04;100.00
24306;BME280;12423;48.768;8.850;2022-07-09T07:16:23;98010.88;;;17.12;100.00
24306;BME280;12423;48.768;8.850;2022-07-09T07:18:24;98015.25;;;17.23;100.00
24306;BME280;12423;48.768;8.850;2022-07-09T07:20:25;98010.41;;;17.27;100.00
24306;BME280;12423;48.768;8.850;2022-07-09T07:22:26;98021.97;;;17.37;100.00
24306;BME280;12423;48.768;8.850;2022-07-09T07:24:27;98009.84;;;17.51;100.00
24306;BME280;12423;48.768;8.850;2022-07-09T07:26:28;98007.22;;;17.59;99.80
24306;BME280;12423;48.768;8.850;2022-07-09T07:28:29;97999.88;;;17.69;99.10
24306;BME280;12423;48.768;8.850;2022-07-09T07:30:30;98012.44;;;17.89;97.61
24306;BME280;12423;48.768;8.850;2022-07-09T07:32:33;98007.03;;;17.89;94.09
24306;BME280;12423;48.768;8.850;2022-07-09T07:34:34;98010.88;;;18.04;94.06
24306;BME280;12423;48.768;8.850;2022-07-09T07:36:35;98009.53;;;18.08;91.60
24306;BME280;12423;48.768;8.850;2022-07-09T07:38:36;98011.53;;;18.24;93.63
24306;BME280;12423;48.768;8.850;2022-07-09T07:40:37;98007.38;;;18.30;91.88
24306;BME280;12423;48.768;8.850;2022-07-09T07:42:38;98010.16;;;18.46;94.60
24306;BME280;12423;48.768;8.850;2022-07-09T07:44:39;98016.56;;;18.63;89.86
24306;BME280;12423;48.768;8.850;2022-07-09T07:46:40;98008.34;;;18.73;89.29
24306;BME280;12423;48.768;8.850;2022-07-09T07:48:41;98005.13;;;18.77;88.36
24306;BME280;12423;48.768;8.850;2022-07-09T07:50:42;98007.34;;;18.82;88.28
24306;BME280;12423;48.768;8.850;2022-07-09T07:52:43;98002.06;;;18.99;84.14
24306;BME280;12423;48.768;8.850;2022-07-09T07:54:45;97994.97;;;18.98;82.00
24306;BME280;12423;48.768;8.850;2022-07-09T07:56:46;97990.22;;;19.00;82.79
24306;BME280;12423;48.768;8.850;2022-07-09T07:58:47;97998.75;;;19.13;81.64
24306;BME280;12423;48.768;8.850;2022-07-09T08:00:48;97995.91;;;19.23;81.04
24306;BME280;12423;48.768;8.850;2022-07-09T08:02:50;97996.28;;;19.36;82.94
24306;BME280;12423;48.768;8.850;2022-07-09T08:04:51;97991.88;;;19.43;78.47
24306;BME280;12423;48.768;8.850;2022-07-09T08:06:52;97996.75;;;19.31;78.24
24306;BME280;12423;48.768;8.850;2022-07-09T08:08:53;97984.31;;;19.47;79.37
24306;BME280;12423;48.768;8.850;2022-07-09T08:10:54;97987.34;;;19.52;78.08
24306;BME280;12423;48.768;8.850;2022-07-09T08:12:55;97995.56;;;19.77;79.91
24306;BME280;12423;48.768;8.850;2022-07-09T08:14:56;97995.19;;;19.80;79.47
24306;BME280;12423;48.768;8.850;2022-07-09T08:16:57;97991.34;;;19.91;78.11
24306;BME280;12423;48.768;8.850;2022-07-09T08:18:58;97992.50;;;19.96;77.88
24306;BME280;12423;48.768;8.850;2022-07-09T08:20:59;97995.22;;;19.96;76.52
24306;BME280;12423;48.768;8.850;2022-07-09T08:23:00;97994.56;;;20.02;75.45
24306;BME280;12423;48.768;8.850;2022-07-09T08:25:01;97993.38;;;19.97;77.32
24306;BME280;12423;48.768;8.850;2022-07-09T08:27:03;97988.78;;;19.97;75.54
24306;BME280;12423;48.768;8.850;2022-07-09T08:29:04;97982.38;;;20.15;77.23
24306;BME280;12423;48.768;8.850;2022-07-09T08:31:05;97991.81;;;20.43;75.56
24306;BME280;12423;48.768;8.850;2022-07-09T08:33:06;97982.50;;;20.38;72.85
24306;BME280;12423;48.768;8.850;2022-07-09T08:35:07;97985.06;;;20.23;72.11
24306;BME280;12423;48.768;8.850;2022-07-09T08:37:08;97980.81;;;20.29;71.80
24306;BME280;12423;48.768;8.850;2022-07-09T08:39:10;97984.75;;;20.26;71.26
24306;BME280;12423;48.768;8.850;2022-07-09T08:41:12;97978.56;;;20.57;72.46
24306;BME280;12423;48.768;8.850;2022-07-09T08:43:13;97978.75;;;20.55;71.57
24306;BME280;12423;48.768;8.850;2022-07-09T08:45:17;97978.06;;;20.61;72.01
24306;BME280;12423;48.768;8.850;2022-07-09T08:47:18;97980.94;;;20.68;70.16
24306;BME280;12423;48.768;8.850;2022-07-09T08:49:20;97975.41;;;21.01;71.47
24306;BME280;12423;48.768;8.850;2022-07-09T08:51:23;97968.84;;;20.87;67.56
24306;BME280;12423;48.768;8.850;2022-07-09T08:53:24;97972.25;;;20.81;68.69
24306;BME280;12423;48.768;8.850;2022-07-09T08:55:28;97967.31;;;20.85;69.31
24306;BME280;12423;48.768;8.850;2022-07-09T08:57:29;97966.28;;;20.94;67.95
24306;BME280;12423;48.768;8.850;2022-07-09T08:59:32;97969.47;;;21.06;69.66
24306;BME280;12423;48.768;8.850;2022-07-09T09:01:33;97954.91;;;21.30;67.75
24306;BME280;12423;48.768;8.850;2022-07-09T09:03:35;97951.34;;;21.61;66.30
24306;BME280;12423;48.768;8.850;2022-07-09T09:05:36;97957.03;;;21.74;65.70
24306;BME280;12423;48.768;8.850;2022-07-09T09:07:37;97953.66;;;21.72;66.57
24306;BME280;12423;48.768;8.850;2022-07-09T09:09:38;97950.53;;;21.83;63.75
24306;BME280;12423;48.768;8.850;2022-07-09T09:11:39;97950.38;;;22.00;64.85
24306;BME280;12423;48.768;8.850;2022-07-09T09:13:41;97943.13;;;21.92;62.60
24306;BME280;12423;48.768;8.850;2022-07-09T09:15:43;97941.66;;;22.27;63.89
24306;BME280;12423;48.768;8.850;2022-07-09T09:17:45;97946.47;;;22.55;63.18
24306;BME280;12423;48.768;8.850;2022-07-09T09:19:46;97945.09;;;22.59;58.74
24306;BME280;12423;48.768;8.850;2022-07-09T09:21:51;97939.72;;;22.51;59.27
24306;BME280;12423;48.768;8.850;2022-07-09T09:23:55;97937.28;;;22.56;60.52
24306;BME280;12423;48.768;8.850;2022-07-09T09:26:07;97924.41;;;23.10;60.33
24306;BME280;12423;48.768;8.850;2022-07-09T09:28:08;97926.38;;;23.16;59.04
24306;BME280;12423;48.768;8.850;2022-07-09T09:30:10;97925.41;;;23.39;58.90
24306;BME280;12423;48.768;8.850;2022-07-09T09:32:11;97924.25;;;23.48;57.56
24306;BME280;12423;48.768;8.850;2022-07-09T09:34:14;97921.97;;;23.51;57.60
24306;BME280;12423;48.768;8.850;2022-07-09T09:36:40;97919.31;;;23.80;56.61
24306;BME280;12423;48.768;8.850;2022-07-09T09:38:42;97919.44;;;23.71;55.03
24306;BME280;12423;48.768;8.850;2022-07-09T09:40:45;97921.75;;;23.89;55.25
24306;BME280;12423;48.768;8.850;2022-07-09T09:42:48;97921.56;;;23.91;53.61
24306;BME280;12423;48.768;8.850;2022-07-09T09:44:50;97916.53;;;24.16;54.99
24306;BME280;12423;48.768;8.850;2022-07-09T09:46:52;97907.91;;;24.76;52.71
24306;BME280;12423;48.768;8.850;2022-07-09T09:48:55;97914.09;;;24.56;52.31
24306;BME280;12423;48.768;8.850;2022-07-09T09:50:59;97913.03;;;24.01;53.43
24306;BME280;12423;48.768;8.850;2022-07-09T09:53:02;97914.75;;;24.37;54.16
24306;BME280;12423;48.768;8.850;2022-07-09T09:55:04;97911.16;;;24.58;52.87
24306;BME280;12423;48.768;8.850;2022-07-09T09:57:07;97909.25;;;24.30;53.59
24306;BME280;12423;48.768;8.850;2022-07-09T09:59:09;97911.19;;;24.08;53.72
24306;BME280;12423;48.768;8.850;2022-07-09T10:01:11;97913.34;;;23.69;54.14
24306;BME280;12423;48.768;8.850;2022-07-09T10:03:12;97906.63;;;23.29;53.51
24306;BME280;12423;48.768;8.850;2022-07-09T10:05:13;97906.00;;;23.12;54.67
24306;BME280;12423;48.768;8.850;2022-07-09T10:07:15;97906.50;;;22.71;54.56
24306;BME280;12423;48.768;8.850;2022-07-09T10:09:16;97905.44;;;22.57;55.36
24306;BME280;12423;48.768;8.850;2022-07-09T10:11:17;97904.81;;;22.70;56.92
24306;BME280;12423;48.768;8.850;2022-07-09T10:13:20;97902.50;;;23.33;57.93
24306;BME280;12423;48.768;8.850;2022-07-09T10:15:25;97901.22;;;23.94;55.50
24306;BME280;12423;48.768;8.850;2022-07-09T10:17:27;97898.03;;;23.90;52.89
24306;BME280;12423;48.768;8.850;2022-07-09T10:19:29;97899.69;;;23.84;53.38
24306;BME280;12423;48.768;8.850;2022-07-09T10:21:33;97891.75;;;23.89;53.45
24306;BME280;12423;48.768;8.850;2022-07-09T10:23:34;97890.63;;;23.84;53.70
24306;BME280;12423;48.768;8.850;2022-07-09T10:25:44;97896.66;;;24.29;53.57
24306;BME280;12423;48.768;8.850;2022-07-09T10:27:48;97887.03;;;25.03;52.02
24306;BME280;12423;48.768;8.850;2022-07-09T10:29:58;97889.91;;;24.88;48.99
24306;BME280;12423;48.768;8.850;2022-07-09T10:31:59;97886.84;;;24.70;49.38
24306;BME280;12423;48.768;8.850;2022-07-09T10:34:09;97885.34;;;25.02;49.22
24306;BME280;12423;48.768;8.850;2022-07-09T10:36:16;97891.88;;;25.14;47.82
24306;BME280;12423;48.768;8.850;2022-07-09T10:38:18;97883.97;;;25.26;47.46